Time;durP1;ratioP1;P1;durP2;ratioP2;P2;SDS_P1;SDS_P2;PMS_P1;PMS_P2;Temp;Humidity;BMP_temperature;BMP_pressure;BME280_temperature;BME280_humidity;BME280_pressure;Samples;Min_cycle;Max_cycle;Signal;HPM_P1;HPM_P2
2024/01/22 00:02:15;;;;;;;;;;;;;;;-10.66;68.16;97492.31;6244819;28;19928;-67
2024/01/22 00:05:16;;;;;;;;;;;;;;;-10.65;68.44;97486.41;6245285;28;19928;-66
2024/01/22 00:08:17;;;;;;;;;;;;;;;-10.71;68.51;97497.28;6245571;28;20016;-67
2024/01/22 00:11:20;;;;;;;;;;;;;;;-10.54;68.66;97492.66;6245732;28;20475;-66
2024/01/22 00:14:24;;;;;;;;;;;;;;;-10.42;68.47;97502.28;6245486;28;19928;-67
2024/01/22 00:17:30;;;;;;;;;;;;;;;-10.52;68.15;97506.28;6250644;28;19921;-66
2024/01/22 00:20:33;;;;;;;;;;;;;;;-10.44;68.26;97502.28;6270003;28;20341;-67
2024/01/22 00:23:40;;;;;;;;;;;;;;;-10.27;67.97;97494.22;6270169;28;19921;-67
2024/01/22 00:26:41;;;;;;;;;;;;;;;-10.36;68.58;97488.88;6269512;28;19921;-67
2024/01/22 00:29:42;;;;;;;;;;;;;;;-10.37;67.97;97494.78;6269304;28;20449;-66
2024/01/22 00:32:46;;;;;;;;;;;;;;;-10.55;67.88;97500.25;6269944;28;19921;-67
2024/01/22 00:35:49;;;;;;;;;;;;;;;-10.52;68.55;97497.78;6269041;28;19960;-67
2024/01/22 00:38:50;;;;;;;;;;;;;;;-10.55;68.51;97498.56;6268894;28;20294;-67
2024/01/22 00:41:51;;;;;;;;;;;;;;;-10.54;68.83;97497.75;6269467;28;19928;-67
2024/01/22 00:44:53;;;;;;;;;;;;;;;-10.51;68.42;97487.66;6269577;28;19928;-67
2024/01/22 00:47:56;;;;;;;;;;;;;;;-10.63;68.64;97487.31;6269617;28;20298;-67
2024/01/22 00:50:57;;;;;;;;;;;;;;;-10.48;69.27;97484.31;6269154;28;19921;-67
2024/01/22 00:54:00;;;;;;;;;;;;;;;-10.34;68.91;97499.97;6269329;28;19920;-66
2024/01/22 00:57:03;;;;;;;;;;;;;;;-10.52;68.66;97502.88;6269608;28;19921;-67
2024/01/22 01:00:05;;;;;;;;;;;;;;;-10.38;68.15;97496.47;6268632;28;19928;-67
2024/01/22 01:03:07;;;;;;;;;;;;;;;-10.43;68.74;97488.72;6268451;28;20398;-67
2024/01/22 01:06:13;;;;;;;;;;;;;;;-10.28;68.35;97500.13;6269329;28;19920;-67
2024/01/22 01:09:16;;;;;;;;;;;;;;;-10.13;68.47;97500.50;6269108;28;19928;-67
2024/01/22 01:12:17;;;;;;;;;;;;;;;-10.18;68.04;97491.88;6269228;28;19920;-67
2024/01/22 01:15:23;;;;;;;;;;;;;;;-10.12;67.77;97486.09;6269508;28;19920;-66
2024/01/22 01:18:23;;;;;;;;;;;;;;;-10.22;68.39;97501.13;6256026;28;19920;-66
2024/01/22 01:21:24;;;;;;;;;;;;;;;-9.96;67.68;97503.50;6243871;28;19967;-66
2024/01/22 01:24:27;;;;;;;;;;;;;;;-10.28;67.78;97500.97;6243601;28;20417;-66
2024/01/22 01:27:28;;;;;;;;;;;;;;;-10.15;67.80;97499.59;6243427;28;20011;-67
2024/01/22 01:30:32;;;;;;;;;;;;;;;-10.14;67.78;97491.13;6243648;28;19921;-66
2024/01/22 01:33:35;;;;;;;;;;;;;;;-10.39;67.91;97492.19;6243499;28;19917;-67
2024/01/22 01:36:36;;;;;;;;;;;;;;;-10.41;68.44;97499.81;6243440;28;19921;-67
2024/01/22 01:39:39;;;;;;;;;;;;;;;-10.26;68.67;97498.47;6243320;28;19954;-67
2024/01/22 01:42:45;;;;;;;;;;;;;;;-10.07;68.53;97505.75;6244302;28;20002;-67
2024/01/22 01:45:46;;;;;;;;;;;;;;;-9.97;68.36;97507.69;6243641;28;19928;-67
2024/01/22 01:48:47;;;;;;;;;;;;;;;-10.12;68.10;97507.31;6245035;28;19920;-67
2024/01/22 01:51:51;;;;;;;;;;;;;;;-9.99;68.04;97504.28;6248604;28;19921;-67
2024/01/22 01:55:01;;;;;;;;;;;;;;;-10.04;68.07;97498.19;6249109;28;19920;-67
2024/01/22 01:58:04;;;;;;;;;;;;;;;-9.91;67.85;97488.31;6247809;28;20279;-67
2024/01/22 02:01:08;;;;;;;;;;;;;;;-10.07;67.90;97490.47;6248549;28;19921;-67
2024/01/22 02:04:13;;;;;;;;;;;;;;;-9.97;67.97;97492.41;6248782;28;20417;-67
2024/01/22 02:07:17;;;;;;;;;;;;;;;-9.84;67.57;97500.38;6248507;28;20446;-67
2024/01/22 02:10:22;;;;;;;;;;;;;;;-10.11;68.13;97503.06;6248554;28;20015;-67
2024/01/22 02:13:28;;;;;;;;;;;;;;;-10.12;68.32;97517.50;6248327;28;19923;-68
2024/01/22 02:16:31;;;;;;;;;;;;;;;-10.02;68.83;97519.47;6247576;28;19983;-68
2024/01/22 02:19:54;;;;;;;;;;;;;;;-9.95;68.91;97518.78;6230476;28;20075;-67
2024/01/22 02:23:05;;;;;;;;;;;;;;;-9.69;68.59;97513.47;6247899;28;20362;-67
2024/01/22 02:26:07;;;;;;;;;;;;;;;-9.91;68.39;97527.34;6247566;28;19920;-67
2024/01/22 02:29:08;;;;;;;;;;;;;;;-9.79;68.50;97522.59;6247570;28;20027;-67
2024/01/22 02:32:14;;;;;;;;;;;;;;;-9.63;68.21;97523.81;6247561;28;19920;-67
2024/01/22 02:35:17;;;;;;;;;;;;;;;-9.89;68.10;97518.06;6247665;28;19921;-67
2024/01/22 02:38:18;;;;;;;;;;;;;;;-9.86;68.37;97522.38;6246443;28;20413;-67
2024/01/22 02:41:19;;;;;;;;;;;;;;;-9.84;68.97;97528.38;6247693;28;19971;-68
2024/01/22 02:44:22;;;;;;;;;;;;;;;-9.84;68.73;97538.56;6247464;28;19928;-67
2024/01/22 02:47:24;;;;;;;;;;;;;;;-9.71;68.68;97540.59;6247772;28;20314;-66
2024/01/22 02:50:25;;;;;;;;;;;;;;;-9.66;68.09;97539.03;6246599;28;19928;-67
2024/01/22 02:53:28;;;;;;;;;;;;;;;-9.70;68.42;97542.31;6247422;28;20390;-66
2024/01/22 02:56:29;;;;;;;;;;;;;;;-9.85;68.51;97542.81;6247291;28;19921;-67
2024/01/22 02:59:31;;;;;;;;;;;;;;;-9.43;67.90;97541.28;6245951;28;19928;-67
2024/01/22 03:02:32;;;;;;;;;;;;;;;-9.60;67.96;97539.16;6246262;28;20530;-66
2024/01/22 03:05:33;;;;;;;;;;;;;;;-9.53;68.00;97535.97;6246888;28;20019;-67
2024/01/22 03:08:36;;;;;;;;;;;;;;;-9.68;67.97;97540.69;6246903;28;20040;-66
2024/01/22 03:11:37;;;;;;;;;;;;;;;-9.78;68.18;97539.56;6246505;28;19921;-67
2024/01/22 03:14:38;;;;;;;;;;;;;;;-9.60;68.18;97544.25;6245944;28;19924;-67
2024/01/22 03:17:41;;;;;;;;;;;;;;;-9.57;68.17;97543.47;6246921;28;19928;-67
2024/01/22 03:20:42;;;;;;;;;;;;;;;-9.57;67.94;97539.25;6246077;28;19921;-67
2024/01/22 03:23:43;;;;;;;;;;;;;;;-9.58;68.17;97531.56;6228623;28;20019;-67
2024/01/22 03:26:47;;;;;;;;;;;;;;;-9.64;68.18;97537.38;6246560;28;19928;-67
2024/01/22 03:29:47;;;;;;;;;;;;;;;-9.65;68.29;97540.75;6246296;28;20391;-66
2024/01/22 03:32:51;;;;;;;;;;;;;;;-9.67;68.10;97539.84;6229115;28;19921;-67
2024/01/22 03:35:54;;;;;;;;;;;;;;;-9.66;68.59;97541.56;6228261;28;19925;-67
2024/01/22 03:38:55;;;;;;;;;;;;;;;-9.65;68.40;97550.94;6245873;28;19927;-67
2024/01/22 03:42:00;;;;;;;;;;;;;;;-9.61;68.86;97552.75;6246432;28;19921;-67
2024/01/22 03:45:04;;;;;;;;;;;;;;;-9.61;68.72;97568.03;6246154;28;19921;-67
2024/01/22 03:48:07;;;;;;;;;;;;;;;-9.42;69.00;97576.13;6245439;28;19928;-66
2024/01/22 03:51:08;;;;;;;;;;;;;;;-9.38;68.31;97577.91;6245186;28;19924;-67
2024/01/22 03:54:09;;;;;;;;;;;;;;;-9.52;68.49;97578.44;6245769;28;19928;-67
2024/01/22 03:57:10;;;;;;;;;;;;;;;-9.53;68.29;97563.97;6245913;28;19925;-67
2024/01/22 04:00:12;;;;;;;;;;;;;;;-9.46;68.99;97569.22;6227626;28;19928;-68
2024/01/22 04:03:16;;;;;;;;;;;;;;;-9.33;68.69;97563.59;6245862;28;19921;-68
2024/01/22 04:06:19;;;;;;;;;;;;;;;-9.38;68.73;97575.38;6245378;28;19921;-67
2024/01/22 04:09:22;;;;;;;;;;;;;;;-9.35;68.62;97561.00;6244758;28;20383;-67
2024/01/22 04:12:26;;;;;;;;;;;;;;;-9.29;68.76;97571.34;6244631;28;19987;-67
2024/01/22 04:15:28;;;;;;;;;;;;;;;-9.24;68.63;97574.00;6245473;28;20010;-68
2024/01/22 04:18:31;;;;;;;;;;;;;;;-9.28;68.58;97587.53;6245247;28;20382;-68
2024/01/22 04:21:43;;;;;;;;;;;;;;;-9.33;68.71;97599.28;6245305;28;19928;-67
2024/01/22 04:24:44;;;;;;;;;;;;;;;-9.32;69.05;97595.91;6227318;28;19943;-67
2024/01/22 04:27:45;;;;;;;;;;;;;;;-9.33;69.18;97589.09;6245395;28;20345;-67
2024/01/22 04:30:46;;;;;;;;;;;;;;;-9.34;68.84;97587.34;6244269;28;19921;-64
2024/01/22 04:33:47;;;;;;;;;;;;;;;-9.35;68.99;97606.03;6244963;28;20433;-68
2024/01/22 04:36:50;;;;;;;;;;;;;;;-9.32;68.97;97621.38;6244910;28;20382;-66
2024/01/22 04:39:55;;;;;;;;;;;;;;;-9.24;68.90;97609.69;6244902;28;19921;-67
2024/01/22 04:42:59;;;;;;;;;;;;;;;-8.85;68.61;97602.13;6244979;28;20426;-67
2024/01/22 04:46:03;;;;;;;;;;;;;;;-8.94;67.80;97608.72;6227477;28;19925;-67
2024/01/22 04:49:06;;;;;;;;;;;;;;;-9.01;67.76;97611.94;6244665;28;20514;-67
2024/01/22 04:52:07;;;;;;;;;;;;;;;-8.91;68.21;97606.22;6244806;28;19920;-67
2024/01/22 04:55:10;;;;;;;;;;;;;;;-8.78;67.69;97610.75;6244718;28;19921;-67
2024/01/22 04:58:12;;;;;;;;;;;;;;;-8.75;66.86;97605.72;6243748;28;19921;-67
2024/01/22 05:01:13;;;;;;;;;;;;;;;-8.64;67.34;97614.47;6243696;28;19920;-67
2024/01/22 05:04:14;;;;;;;;;;;;;;;-8.52;66.96;97611.38;6244387;28;20276;-67
2024/01/22 05:07:18;;;;;;;;;;;;;;;-8.51;66.78;97615.63;6244784;28;19920;-67
2024/01/22 05:10:18;;;;;;;;;;;;;;;-8.49;67.19;97618.19;6245949;28;19920;-67
2024/01/22 05:13:22;;;;;;;;;;;;;;;-8.17;67.30;97627.38;6244137;28;20008;-66
2024/01/22 05:16:26;;;;;;;;;;;;;;;-8.21;66.25;97630.72;6244489;28;19924;-67
2024/01/22 05:19:29;;;;;;;;;;;;;;;-8.07;66.29;97627.56;6244010;28;19921;-67
2024/01/22 05:22:32;;;;;;;;;;;;;;;-7.92;66.18;97633.00;6243929;28;19921;-67
2024/01/22 05:25:34;;;;;;;;;;;;;;;-7.97;66.14;97634.59;6251463;28;19920;-67
2024/01/22 05:28:35;;;;;;;;;;;;;;;-7.89;66.32;97635.59;6251808;28;19921;-67
2024/01/22 05:31:38;;;;;;;;;;;;;;;-7.74;65.75;97638.44;6252222;28;20297;-67
2024/01/22 05:34:39;;;;;;;;;;;;;;;-7.67;66.09;97644.53;6251877;28;19956;-68
2024/01/22 05:37:42;;;;;;;;;;;;;;;-7.58;65.49;97654.06;6252544;28;19925;-67
2024/01/22 05:40:43;;;;;;;;;;;;;;;-7.41;65.64;97654.38;6251705;28;19920;-67
2024/01/22 05:43:44;;;;;;;;;;;;;;;-7.23;65.52;97658.13;6252062;28;20383;-67
2024/01/22 05:46:45;;;;;;;;;;;;;;;-7.07;66.04;97659.25;6252415;28;19928;-68
2024/01/22 05:49:46;;;;;;;;;;;;;;;-6.85;65.57;97655.34;6251438;28;19921;-67
2024/01/22 05:52:47;;;;;;;;;;;;;;;-6.86;65.48;97648.50;6251443;28;19936;-66
2024/01/22 05:55:50;;;;;;;;;;;;;;;-6.73;65.48;97659.81;6252112;28;19921;-66
2024/01/22 05:58:52;;;;;;;;;;;;;;;-6.49;65.29;97659.28;6251236;28;19928;-67
2024/01/22 06:01:56;;;;;;;;;;;;;;;-6.22;64.53;97663.09;6251386;28;19921;-67
2024/01/22 06:05:00;;;;;;;;;;;;;;;-6.13;64.68;97658.94;6252431;28;19921;-67
2024/01/22 06:08:03;;;;;;;;;;;;;;;-5.76;64.47;97658.53;6250514;28;19917;-68
2024/01/22 06:11:10;;;;;;;;;;;;;;;-5.10;64.29;97660.06;6251701;28;19921;-66
2024/01/22 06:14:13;;;;;;;;;;;;;;;-4.73;62.74;97668.09;6251710;28;19921;-67
2024/01/22 06:17:14;;;;;;;;;;;;;;;-4.55;62.10;97670.81;6251115;28;20014;-68
2024/01/22 06:20:15;;;;;;;;;;;;;;;-4.30;62.37;97683.84;6251638;28;20460;-67
2024/01/22 06:23:19;;;;;;;;;;;;;;;-4.15;61.43;97675.38;6252024;28;20007;-67
2024/01/22 06:26:22;;;;;;;;;;;;;;;-3.86;61.75;97670.38;6251112;28;19967;-67
2024/01/22 06:29:23;;;;;;;;;;;;;;;-3.34;61.19;97670.59;6250565;28;20043;-66
2024/01/22 06:32:26;;;;;;;;;;;;;;;-3.16;61.08;97673.19;6250753;28;20411;-67
2024/01/22 06:35:32;;;;;;;;;;;;;;;-3.06;60.47;97686.06;6232588;28;19925;-67
2024/01/22 06:38:35;;;;;;;;;;;;;;;-2.84;60.46;97682.69;6247697;28;19921;-66
2024/01/22 06:41:37;;;;;;;;;;;;;;;-2.75;60.18;97682.66;6247108;28;20071;-67
2024/01/22 06:44:42;;;;;;;;;;;;;;;-2.78;58.86;97672.38;6247239;28;19921;-68
2024/01/22 06:47:43;;;;;;;;;;;;;;;-2.75;59.60;97677.53;6246623;28;19921;-68
2024/01/22 06:50:44;;;;;;;;;;;;;;;-2.73;60.18;97686.13;6246634;28;19921;-67
2024/01/22 06:53:45;;;;;;;;;;;;;;;-2.72;59.82;97687.84;6246676;28;20390;-67
2024/01/22 06:56:48;;;;;;;;;;;;;;;-2.70;60.14;97677.53;6246554;28;20019;-67
2024/01/22 06:59:49;;;;;;;;;;;;;;;-3.02;59.94;97687.81;6229040;28;20298;-68
2024/01/22 07:02:52;;;;;;;;;;;;;;;-3.08;59.63;97687.81;6247167;28;19928;-67
2024/01/22 07:05:54;;;;;;;;;;;;;;;-2.94;59.93;97699.00;6246494;28;19955;-67
2024/01/22 07:08:57;;;;;;;;;;;;;;;-2.66;59.91;97706.72;6246804;28;20015;-68
2024/01/22 07:12:04;;;;;;;;;;;;;;;-2.45;59.67;97704.16;6247004;28;19952;-67
2024/01/22 07:15:12;;;;;;;;;;;;;;;-2.44;58.39;97700.72;6246928;28;19921;-67
2024/01/22 07:18:14;;;;;;;;;;;;;;;-2.41;58.96;97703.28;6257592;28;20387;-68
2024/01/22 07:21:17;;;;;;;;;;;;;;;-2.30;58.85;97701.56;6253381;28;20511;-68
2024/01/22 07:24:20;;;;;;;;;;;;;;;-2.14;58.91;97706.72;6271622;28;20002;-68
2024/01/22 07:27:21;;;;;;;;;;;;;;;-1.94;59.01;97706.69;6271178;28;20309;-68
2024/01/22 07:30:23;;;;;;;;;;;;;;;-1.86;57.94;97710.97;6270992;28;20520;-66
2024/01/22 07:33:31;;;;;;;;;;;;;;;-1.82;56.83;97704.94;6271220;28;19920;-68
2024/01/22 07:36:32;;;;;;;;;;;;;;;-1.65;58.12;97711.78;6270434;28;19921;-67
2024/01/22 07:39:36;;;;;;;;;;;;;;;-1.45;57.79;97709.97;6271149;28;19927;-67
2024/01/22 07:42:38;;;;;;;;;;;;;;;-1.33;58.01;97722.00;6270288;28;19931;-68
2024/01/22 07:45:42;;;;;;;;;;;;;;;-1.23;57.79;97720.22;6270540;28;19920;-67
2024/01/22 07:48:46;;;;;;;;;;;;;;;-1.16;57.90;97711.56;6270772;28;19921;-68
2024/01/22 07:51:58;;;;;;;;;;;;;;;-1.03;56.70;97707.22;6270682;28;19920;-67
2024/01/22 07:54:59;;;;;;;;;;;;;;;-0.88;57.28;97711.41;6270511;28;19920;-67
2024/01/22 07:58:01;;;;;;;;;;;;;;;-0.77;56.90;97704.47;6269952;28;19970;-68
2024/01/22 08:01:02;;;;;;;;;;;;;;;-0.66;55.64;97710.41;6270243;28;19921;-67
2024/01/22 08:04:03;;;;;;;;;;;;;;;-0.64;55.50;97716.44;6270738;28;19920;-67
2024/01/22 08:07:09;;;;;;;;;;;;;;;-0.53;56.63;97713.78;6270436;28;19924;-67
2024/01/22 08:10:10;;;;;;;;;;;;;;;-0.41;56.46;97707.66;6270179;28;19920;-68
2024/01/22 08:13:12;;;;;;;;;;;;;;;-0.34;55.68;97699.84;6269433;28;20033;-68
2024/01/22 08:16:15;;;;;;;;;;;;;;;-0.28;55.12;97698.94;6270150;28;20067;-67
2024/01/22 08:19:20;;;;;;;;;;;;;;;-0.28;55.34;97699.78;6249966;28;19921;-67
2024/01/22 08:22:24;;;;;;;;;;;;;;;-0.21;56.29;97700.56;6244767;28;19944;-67
2024/01/22 08:25:28;;;;;;;;;;;;;;;-0.12;54.94;97709.97;6245022;28;19948;-68
2024/01/22 08:28:30;;;;;;;;;;;;;;;-0.15;54.47;97710.88;6244719;28;19928;-67
2024/01/22 08:31:31;;;;;;;;;;;;;;;-0.19;55.44;97709.19;6244563;28;20007;-67
2024/01/22 08:34:37;;;;;;;;;;;;;;;-0.25;55.58;97709.25;6245219;28;19921;-68
2024/01/22 08:37:40;;;;;;;;;;;;;;;-0.18;55.10;97720.38;6244724;28;20386;-68
2024/01/22 08:40:44;;;;;;;;;;;;;;;-0.12;54.20;97720.31;6245112;28;19920;-67
2024/01/22 08:43:45;;;;;;;;;;;;;;;-0.14;53.66;97712.59;6244045;28;19921;-67
2024/01/22 08:46:46;;;;;;;;;;;;;;;-0.20;53.97;97711.78;6244288;28;20401;-66
2024/01/22 08:49:47;;;;;;;;;;;;;;;-0.21;53.76;97710.91;6244208;28;19928;-68
2024/01/22 08:52:54;;;;;;;;;;;;;;;-0.25;53.74;97715.28;6244544;28;20461;-69
2024/01/22 08:55:57;;;;;;;;;;;;;;;-0.30;54.22;97721.34;6243902;28;19921;-67
2024/01/22 08:58:58;;;;;;;;;;;;;;;-0.24;55.36;97718.72;6243069;28;19920;-68
2024/01/22 09:02:02;;;;;;;;;;;;;;;-0.20;54.43;97716.94;6244278;28;19921;-67
2024/01/22 09:05:22;;;;;;;;;;;;;;;-0.16;55.35;97723.81;6244331;28;20071;-67
2024/01/22 09:08:26;;;;;;;;;;;;;;;-0.11;53.89;97733.25;6244585;28;19921;-68
2024/01/22 09:11:27;;;;;;;;;;;;;;;-0.12;54.33;97736.69;6243606;28;20371;-68
2024/01/22 09:14:29;;;;;;;;;;;;;;;-0.16;53.10;97729.84;6243790;28;19917;-67
2024/01/22 09:17:33;;;;;;;;;;;;;;;-0.06;54.70;97728.91;6243615;28;19921;-68
2024/01/22 09:20:37;;;;;;;;;;;;;;;0.01;52.56;97731.44;6227132;28;19920;-68
2024/01/22 09:23:43;;;;;;;;;;;;;;;0.05;55.11;97733.97;6226154;28;20043;-68
2024/01/22 09:26:44;;;;;;;;;;;;;;;-0.16;54.73;97729.84;6243829;28;19917;-68
2024/01/22 09:29:46;;;;;;;;;;;;;;;-0.33;53.58;97726.56;6243896;28;19921;-67
2024/01/22 09:32:51;;;;;;;;;;;;;;;-0.34;54.68;97730.00;6243699;28;19927;-68
2024/01/22 09:35:55;;;;;;;;;;;;;;;-0.28;53.97;97729.97;6244015;28;20314;-67
2024/01/22 09:39:05;;;;;;;;;;;;;;;-0.29;52.71;97738.56;6244119;28;20414;-67
2024/01/22 09:42:13;;;;;;;;;;;;;;;-0.54;52.91;97743.94;6244202;28;20066;-67
2024/01/22 09:45:16;;;;;;;;;;;;;;;-0.81;53.15;97744.13;6243966;28;19921;-68
2024/01/22 09:48:20;;;;;;;;;;;;;;;-0.86;53.56;97735.53;6243238;28;19928;-68
2024/01/22 09:51:21;;;;;;;;;;;;;;;-0.94;53.87;97733.84;6242989;28;19920;-67
2024/01/22 09:54:25;;;;;;;;;;;;;;;-0.99;53.63;97735.59;6243190;28;19991;-68
2024/01/22 09:57:28;;;;;;;;;;;;;;;-1.02;53.19;97735.63;6244054;28;20016;-68
2024/01/22 10:00:31;;;;;;;;;;;;;;;-0.98;53.10;97741.63;6243769;28;20055;-67
2024/01/22 10:03:37;;;;;;;;;;;;;;;-0.88;53.62;97745.00;6243919;28;19939;-67
2024/01/22 10:06:41;;;;;;;;;;;;;;;-0.89;53.53;97738.13;6243603;28;20070;-67
2024/01/22 10:09:42;;;;;;;;;;;;;;;-0.87;52.72;97759.66;6244962;28;19921;-67
2024/01/22 10:12:55;;;;;;;;;;;;;;;-0.88;53.34;97747.59;6248369;28;19932;-68
2024/01/22 10:16:08;;;;;;;;;;;;;;;-0.85;53.36;97742.41;6248457;28;19928;-67
2024/01/22 10:19:09;;;;;;;;;;;;;;;-0.77;52.93;97751.81;6248055;28;19940;-68
2024/01/22 10:22:13;;;;;;;;;;;;;;;-0.76;52.67;97753.56;6248104;28;19921;-68
2024/01/22 10:25:16;;;;;;;;;;;;;;;-0.73;52.57;97750.09;6248104;28;20019;-67
2024/01/22 10:28:21;;;;;;;;;;;;;;;-0.77;53.78;97744.06;6249131;28;20337;-68
2024/01/22 10:31:22;;;;;;;;;;;;;;;-0.91;53.73;97754.50;6247360;28;19928;-69
2024/01/22 10:34:28;;;;;;;;;;;;;;;-1.08;53.90;97753.72;6248107;28;19921;-69
2024/01/22 10:37:28;;;;;;;;;;;;;;;-1.19;54.03;97758.06;6247626;28;19921;-68
2024/01/22 10:40:30;;;;;;;;;;;;;;;-1.41;53.66;97772.78;6247101;28;19921;-68
2024/01/22 10:43:33;;;;;;;;;;;;;;;-1.52;54.54;97770.25;6247219;28;19921;-68
2024/01/22 10:46:38;;;;;;;;;;;;;;;-1.64;54.42;97765.97;6247601;28;19928;-68
2024/01/22 10:49:41;;;;;;;;;;;;;;;-1.76;55.29;97765.97;6247492;28;20444;-67
2024/01/22 10:52:43;;;;;;;;;;;;;;;-1.86;55.19;97775.47;6247887;28;20458;-67
2024/01/22 10:55:51;;;;;;;;;;;;;;;-1.95;55.22;97775.47;6247701;28;19928;-67
2024/01/22 10:58:54;;;;;;;;;;;;;;;-2.10;54.89;97780.63;6229203;28;20314;-68
2024/01/22 11:01:59;;;;;;;;;;;;;;;-2.11;54.82;97784.09;6247110;28;19920;-67
2024/01/22 11:05:12;;;;;;;;;;;;;;;-2.32;54.20;97784.91;6247285;28;20068;-68
2024/01/22 11:08:16;;;;;;;;;;;;;;;-2.47;54.60;97788.34;6246468;28;19945;-67
2024/01/22 11:11:24;;;;;;;;;;;;;;;-2.57;54.95;97778.91;6247262;28;19928;-67
2024/01/22 11:14:27;;;;;;;;;;;;;;;-2.67;55.00;97782.31;6247025;28;20390;-67
2024/01/22 11:17:31;;;;;;;;;;;;;;;-2.77;54.67;97781.44;6246683;28;20337;-67
2024/01/22 11:20:37;;;;;;;;;;;;;;;-2.93;54.84;97785.69;6246560;28;19921;-67
2024/01/22 11:23:38;;;;;;;;;;;;;;;-3.08;54.69;97783.06;6246347;28;19952;-67
2024/01/22 11:26:45;;;;;;;;;;;;;;;-3.15;55.42;97774.44;6246833;28;19920;-68
2024/01/22 11:29:48;;;;;;;;;;;;;;;-3.26;55.08;97774.38;6246071;28;20341;-68
2024/01/22 11:32:54;;;;;;;;;;;;;;;-3.39;55.12;97785.50;6246661;28;19921;-69
2024/01/22 11:35:57;;;;;;;;;;;;;;;-3.56;55.33;97788.00;6246572;28;19928;-66
2024/01/22 11:39:01;;;;;;;;;;;;;;;-3.65;55.29;97791.38;6246663;28;19925;-68
2024/01/22 11:42:16;;;;;;;;;;;;;;;-3.72;55.47;97797.31;6246218;28;19929;-66
2024/01/22 11:45:17;;;;;;;;;;;;;;;-3.86;55.57;97793.78;6228622;28;19921;-68
2024/01/22 11:48:19;;;;;;;;;;;;;;;-4.00;55.64;97806.53;6245971;28;19921;-67
2024/01/22 11:51:24;;;;;;;;;;;;;;;-4.14;55.51;97800.44;6246105;28;20302;-67
2024/01/22 11:54:25;;;;;;;;;;;;;;;-4.22;55.61;97808.06;6246015;28;20050;-67
2024/01/22 11:57:31;;;;;;;;;;;;;;;-4.33;55.86;97809.69;6245970;28;19920;-68
2024/01/22 12:00:32;;;;;;;;;;;;;;;-4.42;55.96;97819.91;6245086;28;20403;-67
2024/01/22 12:03:37;;;;;;;;;;;;;;;-4.49;56.07;97818.13;6245882;28;19921;-67
2024/01/22 12:07:04;;;;;;;;;;;;;;;-4.61;56.20;97821.44;6245866;28;19927;-69
2024/01/22 12:10:25;;;;;;;;;;;;;;;-4.71;56.39;97825.59;6241346;28;19921;-68
2024/01/22 12:13:29;;;;;;;;;;;;;;;-4.76;56.51;97822.13;6245032;28;19983;-67
2024/01/22 12:16:30;;;;;;;;;;;;;;;-4.78;56.62;97823.84;6244861;28;19928;-66
2024/01/22 12:19:33;;;;;;;;;;;;;;;-4.89;56.75;97821.16;6228100;28;19964;-67
2024/01/22 12:22:39;;;;;;;;;;;;;;;-4.98;56.88;97821.91;6245434;28;19921;-67
2024/01/22 12:25:42;;;;;;;;;;;;;;;-5.03;56.77;97826.13;6245437;28;19925;-67
2024/01/22 12:28:52;;;;;;;;;;;;;;;-5.12;56.88;97826.00;6245083;28;20379;-68
2024/01/22 12:32:05;;;;;;;;;;;;;;;-5.15;57.04;97825.09;6244026;28;19927;-67
2024/01/22 12:35:07;;;;;;;;;;;;;;;-5.20;56.85;97830.19;6243999;28;19927;-67
2024/01/22 12:38:11;;;;;;;;;;;;;;;-5.26;56.78;97825.84;6244751;28;20306;-67
2024/01/22 12:41:15;;;;;;;;;;;;;;;-5.36;57.21;97841.09;6243954;28;19921;-67
2024/01/22 12:44:16;;;;;;;;;;;;;;;-5.44;57.07;97836.69;6244304;28;19928;-67
2024/01/22 12:47:19;;;;;;;;;;;;;;;-5.60;57.16;97839.91;6244497;28;20294;-68
2024/01/22 12:50:20;;;;;;;;;;;;;;;-5.72;57.21;97845.72;6244610;28;19929;-68
2024/01/22 12:53:24;;;;;;;;;;;;;;;-5.82;57.58;97837.88;6244527;28;19921;-67
2024/01/22 12:56:25;;;;;;;;;;;;;;;-5.89;57.91;97848.03;6243641;28;19921;-67
2024/01/22 12:59:26;;;;;;;;;;;;;;;-5.92;57.59;97852.22;6243778;28;20047;-67
2024/01/22 13:02:27;;;;;;;;;;;;;;;-5.95;58.12;97853.06;6262432;28;20967;-67
2024/01/22 13:05:28;;;;;;;;;;;;;;;-5.92;57.89;97855.66;6269154;28;20417;-67
2024/01/22 13:08:30;;;;;;;;;;;;;;;-5.85;57.82;97859.19;6268235;28;19916;-66
2024/01/22 13:11:31;;;;;;;;;;;;;;;-5.90;58.01;97860.81;6268709;28;19921;-68
2024/01/22 13:14:35;;;;;;;;;;;;;;;-6.03;57.57;97864.03;6269088;28;19921;-68
2024/01/22 13:17:36;;;;;;;;;;;;;;;-5.98;58.07;97862.41;6267397;28;19922;-67
2024/01/22 13:20:37;;;;;;;;;;;;;;;-6.11;57.83;97876.75;6266667;28;20402;-66
2024/01/22 13:23:43;;;;;;;;;;;;;;;-6.12;57.56;97875.00;6268756;28;19924;-67
2024/01/22 13:26:47;;;;;;;;;;;;;;;-6.24;58.06;97874.81;6269141;28;19920;-67
2024/01/22 13:29:50;;;;;;;;;;;;;;;-6.23;57.91;97873.97;6268985;28;20437;-67
2024/01/22 13:32:57;;;;;;;;;;;;;;;-6.33;57.57;97883.19;6269065;28;19936;-67
2024/01/22 13:36:04;;;;;;;;;;;;;;;-6.44;57.78;97888.13;6269106;28;19928;-68
2024/01/22 13:39:12;;;;;;;;;;;;;;;-6.53;58.33;97887.97;6268925;28;19921;-66
2024/01/22 13:42:20;;;;;;;;;;;;;;;-6.53;58.45;97882.84;6268635;28;19932;-67
2024/01/22 13:45:23;;;;;;;;;;;;;;;-6.55;58.22;97899.84;6271096;28;19920;-68
2024/01/22 13:48:24;;;;;;;;;;;;;;;-6.52;58.56;97905.03;6273516;28;20464;-67
2024/01/22 13:51:25;;;;;;;;;;;;;;;-6.53;58.94;97908.44;6273229;28;20389;-68
2024/01/22 13:54:28;;;;;;;;;;;;;;;-6.46;58.63;97905.13;6273513;28;20412;-67
2024/01/22 13:57:29;;;;;;;;;;;;;;;-6.50;58.46;97910.19;6273469;28;19921;-68
2024/01/22 14:00:30;;;;;;;;;;;;;;;-6.52;58.52;97912.72;6266751;28;19921;-67
2024/01/22 14:03:34;;;;;;;;;;;;;;;-6.50;58.31;97908.50;6248674;28;19921;-68
2024/01/22 14:06:38;;;;;;;;;;;;;;;-6.50;58.64;97913.63;6248480;28;19921;-67
2024/01/22 14:09:42;;;;;;;;;;;;;;;-6.49;58.90;97915.31;6248558;28;19991;-67
2024/01/22 14:12:46;;;;;;;;;;;;;;;-6.32;58.05;97915.63;6248387;28;19921;-68
2024/01/22 14:15:47;;;;;;;;;;;;;;;-6.52;58.72;97920.41;6247571;28;19921;-67
2024/01/22 14:18:49;;;;;;;;;;;;;;;-6.58;58.92;97915.16;6247633;28;20035;-67
2024/01/22 14:21:53;;;;;;;;;;;;;;;-6.42;58.57;97921.44;6248117;28;20023;-67
2024/01/22 14:24:56;;;;;;;;;;;;;;;-6.51;58.34;97927.25;6248227;28;19917;-68
2024/01/22 14:28:00;;;;;;;;;;;;;;;-6.62;58.54;97933.88;6248493;28;19921;-68
2024/01/22 14:31:03;;;;;;;;;;;;;;;-6.70;58.99;97932.84;6247244;28;20426;-67
2024/01/22 14:34:06;;;;;;;;;;;;;;;-6.61;59.15;97936.44;6230835;28;19920;-68
2024/01/22 14:37:10;;;;;;;;;;;;;;;-6.66;59.37;97947.41;6247099;28;19924;-67
2024/01/22 14:40:14;;;;;;;;;;;;;;;-6.64;59.20;97950.88;6247411;28;20390;-67
2024/01/22 14:43:15;;;;;;;;;;;;;;;-6.74;58.93;97943.84;6247017;28;19928;-67
2024/01/22 14:46:19;;;;;;;;;;;;;;;-6.71;59.04;97959.25;6247786;28;20324;-66
2024/01/22 14:49:23;;;;;;;;;;;;;;;-6.85;59.34;97952.19;6247312;28;19996;-67
2024/01/22 14:52:28;;;;;;;;;;;;;;;-6.92;59.40;97960.53;6229595;28;20014;-68
2024/01/22 14:55:31;;;;;;;;;;;;;;;-6.98;59.69;97954.44;6246174;28;19927;-67
2024/01/22 14:58:41;;;;;;;;;;;;;;;-6.94;59.46;97958.78;6247039;28;19921;-68
2024/01/22 15:01:42;;;;;;;;;;;;;;;-6.84;59.47;97959.00;6246773;28;19948;-68
2024/01/22 15:04:46;;;;;;;;;;;;;;;-6.98;59.47;97960.41;6246707;28;20019;-67
2024/01/22 15:07:47;;;;;;;;;;;;;;;-7.00;59.25;97959.50;6246422;28;20391;-69
2024/01/22 15:10:53;;;;;;;;;;;;;;;-7.08;59.48;97968.72;6247076;28;19921;-67
2024/01/22 15:13:54;;;;;;;;;;;;;;;-7.15;60.02;97961.75;6246684;28;20019;-67
2024/01/22 15:16:56;;;;;;;;;;;;;;;-7.13;59.68;97960.06;6246840;28;19928;-67
2024/01/22 15:19:58;;;;;;;;;;;;;;;-7.23;60.37;97959.88;6271223;28;19956;-68
2024/01/22 15:23:03;;;;;;;;;;;;;;;-7.22;60.29;97965.84;6271691;28;19920;-68
2024/01/22 15:26:07;;;;;;;;;;;;;;;-7.23;59.96;97970.09;6271011;28;19920;-67
2024/01/22 15:29:08;;;;;;;;;;;;;;;-7.23;59.62;97976.91;6270645;28;19924;-67
2024/01/22 15:32:10;;;;;;;;;;;;;;;-7.25;59.84;97976.88;6270943;28;20424;-68
2024/01/22 15:35:12;;;;;;;;;;;;;;;-7.37;59.47;97973.19;6270676;28;19921;-67
2024/01/22 15:38:16;;;;;;;;;;;;;;;-7.48;60.49;97986.56;6270132;28;19931;-67
2024/01/22 15:41:22;;;;;;;;;;;;;;;-7.55;60.42;97988.97;6271211;28;20318;-67
2024/01/22 15:44:29;;;;;;;;;;;;;;;-7.61;60.20;97991.34;6270245;28;19960;-67
2024/01/22 15:47:30;;;;;;;;;;;;;;;-7.70;60.54;97989.44;6271114;28;20457;-68
2024/01/22 15:50:36;;;;;;;;;;;;;;;-7.79;60.49;98002.84;6271072;28;19920;-68
2024/01/22 15:53:41;;;;;;;;;;;;;;;-7.77;61.12;97996.09;6270803;28;19920;-67